Time;durP1;ratioP1;P1;durP2;ratioP2;P2;SDS_P1;SDS_P2;PMS_P1;PMS_P2;Temp;Humidity;BMP_temperature;BMP_pressure;BME280_temperature;BME280_humidity;BME280_pressure;Samples;Min_cycle;Max_cycle;Signal;HPM_P1;HPM_P2
2022/09/04 00:23:04;;;;;;;;;;;;;;;;;;6209997;23;19924;-73
2022/09/04 00:25:29;;;;;;;;;;;;;;;;;;6211951;23;19912;-73
2022/09/04 00:27:55;;;;;;;;;;;;;;;;;;6207868;23;19920;-72
2022/09/04 00:30:21;;;;;;;;;;;;;;;;;;6211682;23;20259;-72
2022/09/04 00:32:48;;;;;;;;;;;;;;;;;;6211789;23;20364;-72
2022/09/04 00:35:14;;;;;;;;;;;;;;;;;;6214844;23;19973;-73
2022/09/04 00:37:40;;;;;;;;;;;;;;;;;;6188232;23;20340;-73
2022/09/04 00:40:07;;;;;;;;;;;;;;;;;;6189146;23;19940;-73
2022/09/04 00:42:34;;;;;;;;;;;;;;;;;;6163588;23;20379;-74
2022/09/04 00:44:59;;;;;;;;;;;;;;;;;;6187847;23;20006;-74
2022/09/04 00:47:25;;;;;;;;;;;;;;;;;;6187469;23;19944;-73
2022/09/04 00:49:50;;;;;;;;;;;;;;;;;;6216997;23;20337;-74
2022/09/04 00:52:16;;;;;;;;;;;;;;;;;;6213483;23;19946;-74
2022/09/04 00:54:41;;;;;;;;;;;;;;;;;;6214218;23;20058;-74
2022/09/04 00:57:12;;;;;;;;;;;;;;;;;;6213233;23;19994;-73
2022/09/04 00:59:38;;;;;;;;;;;;;;;;;;6213678;23;19919;-75
2022/09/04 01:02:03;;;;;;;;;;;;;;;;;;6213524;23;19912;-75
2022/09/04 01:04:29;;;;;;;;;;;;;;;;;;6213689;23;19911;-73
2022/09/04 01:06:55;;;;;;;;;;;;;;;;;;6213830;23;19919;-72
2022/09/04 01:09:21;;;;;;;;;;;;;;;;;;6213191;23;20272;-73
2022/09/04 01:11:46;;;;;;;;;;;;;;;;;;6212272;23;19940;-74
2022/09/04 01:14:12;;;;;;;;;;;;;;;;;;6221907;23;19923;-73
2022/09/04 01:16:38;;;;;;;;;;;;;;;;;;6225291;23;19911;-73
2022/09/04 01:19:03;;;;;;;;;;;;;;;;;;6223321;23;19950;-72
2022/09/04 01:21:29;;;;;;;;;;;;;;;;;;6187412;23;19920;-71
2022/09/04 01:23:55;;;;;;;;;;;;;;;;;;6210749;23;19998;-72
2022/09/04 01:26:21;;;;;;;;;;;;;;;;;;6213270;23;19954;-72
2022/09/04 01:28:46;;;;;;;;;;;;;;;;;;6213254;23;19912;-72
2022/09/04 01:31:12;;;;;;;;;;;;;;;;;;6213819;23;19923;-72
2022/09/04 01:33:38;;;;;;;;;;;;;;;;;;6211759;23;20276;-71
2022/09/04 01:36:03;;;;;;;;;;;;;;;;;;6213451;23;20075;-72
2022/09/04 01:38:29;;;;;;;;;;;;;;;;;;6211627;23;19916;-72
2022/09/04 01:40:55;;;;;;;;;;;;;;;;;;6213635;23;19915;-72
2022/09/04 01:43:21;;;;;;;;;;;;;;;;;;6212958;23;19912;-71
2022/09/04 01:45:46;;;;;;;;;;;;;;;;;;6212948;23;19919;-71
2022/09/04 01:48:12;;;;;;;;;;;;;;;;;;6212705;23;19922;-71
2022/09/04 01:50:38;;;;;;;;;;;;;;;;;;6213219;23;20288;-73
2022/09/04 01:53:03;;;;;;;;;;;;;;;;;;6236658;23;19920;-72
2022/09/04 01:55:29;;;;;;;;;;;;;;;;;;6212940;23;20256;-72
2022/09/04 01:57:55;;;;;;;;;;;;;;;;;;6212963;23;19912;-73
2022/09/04 02:00:21;;;;;;;;;;;;;;;;;;6211137;23;20322;-73
2022/09/04 02:02:47;;;;;;;;;;;;;;;;;;6212860;23;19934;-72
2022/09/04 02:05:13;;;;;;;;;;;;;;;;;;6213016;23;20340;-72
2022/09/04 02:07:38;;;;;;;;;;;;;;;;;;6213389;23;19939;-73
2022/09/04 02:10:04;;;;;;;;;;;;;;;;;;6213294;23;20310;-72
2022/09/04 02:12:33;;;;;;;;;;;;;;;;;;6212543;23;19955;-73
2022/09/04 02:14:58;;;;;;;;;;;;;;;;;;6212967;23;19912;-73
2022/09/04 02:17:24;;;;;;;;;;;;;;;;;;6212532;23;19912;-71
2022/09/04 02:19:50;;;;;;;;;;;;;;;;;;6212920;23;19987;-72
2022/09/04 02:22:24;;;;;;;;;;;;;;;;;;6210850;23;19953;-71
2022/09/04 02:24:50;;;;;;;;;;;;;;;;;;6211289;23;20348;-72
2022/09/04 02:27:16;;;;;;;;;;;;;;;;;;6210928;23;19927;-72
2022/09/04 02:29:51;;;;;;;;;;;;;;;;;;6212620;23;19951;-73
2022/09/04 02:32:17;;;;;;;;;;;;;;;;;;6212439;23;19927;-73
2022/09/04 02:34:42;;;;;;;;;;;;;;;;;;6212690;23;20331;-72
2022/09/04 02:37:08;;;;;;;;;;;;;;;;;;6212106;23;19912;-75
2022/09/04 02:39:34;;;;;;;;;;;;;;;;;;6212667;23;19918;-73
2022/09/04 02:42:02;;;;;;;;;;;;;;;;;;6212743;23;19916;-73
2022/09/04 02:44:28;;;;;;;;;;;;;;;;;;6210742;23;19911;-72
2022/09/04 02:46:53;;;;;;;;;;;;;;;;;;6211479;23;19919;-72
2022/09/04 02:49:19;;;;;;;;;;;;;;;;;;6213292;23;19912;-73
2022/09/04 02:51:44;;;;;;;;;;;;;;;;;;6215496;23;19912;-73
2022/09/04 02:54:10;;;;;;;;;;;;;;;;;;6214523;23;20022;-71
2022/09/04 02:56:35;;;;;;;;;;;;;;;;;;6212535;23;19911;-73
2022/09/04 02:59:02;;;;;;;;;;;;;;;;;;6212721;23;20363;-72
2022/09/04 03:01:27;;;;;;;;;;;;;;;;;;6212271;23;19912;-73
2022/09/04 03:03:53;;;;;;;;;;;;;;;;;;6212353;23;20260;-73
2022/09/04 03:06:21;;;;;;;;;;;;;;;;;;6212265;23;19982;-73
2022/09/04 03:08:47;;;;;;;;;;;;;;;;;;6210673;23;19912;-73
2022/09/04 03:11:12;;;;;;;;;;;;;;;;;;6212127;23;19947;-72
2022/09/04 03:13:38;;;;;;;;;;;;;;;;;;6210473;23;20364;-72
2022/09/04 03:16:04;;;;;;;;;;;;;;;;;;6212228;23;19919;-74
2022/09/04 03:18:29;;;;;;;;;;;;;;;;;;6210468;23;19915;-73
2022/09/04 03:20:55;;;;;;;;;;;;;;;;;;6212853;23;19911;-73
2022/09/04 03:23:21;;;;;;;;;;;;;;;;;;6212051;23;19931;-74
2022/09/04 03:25:46;;;;;;;;;;;;;;;;;;6210558;23;19912;-74
2022/09/04 03:28:12;;;;;;;;;;;;;;;;;;6211818;23;19915;-72
2022/09/04 03:30:38;;;;;;;;;;;;;;;;;;6212352;23;19912;-73
2022/09/04 03:33:03;;;;;;;;;;;;;;;;;;6212013;23;19966;-72
2022/09/04 03:35:29;;;;;;;;;;;;;;;;;;6212300;23;20348;-73
2022/09/04 03:37:54;;;;;;;;;;;;;;;;;;6185462;23;19920;-73
2022/09/04 03:40:20;;;;;;;;;;;;;;;;;;6211820;23;19958;-72
2022/09/04 03:42:46;;;;;;;;;;;;;;;;;;6212009;23;19947;-73
2022/09/04 03:45:11;;;;;;;;;;;;;;;;;;6211913;23;19916;-76
2022/09/04 03:47:40;;;;;;;;;;;;;;;;;;6212090;23;20352;-73
2022/09/04 03:50:06;;;;;;;;;;;;;;;;;;6212103;23;19935;-72
2022/09/04 03:52:31;;;;;;;;;;;;;;;;;;6211637;23;20365;-73
2022/09/04 03:54:57;;;;;;;;;;;;;;;;;;6211951;23;19928;-72
2022/09/04 03:57:23;;;;;;;;;;;;;;;;;;6211722;23;19916;-72
2022/09/04 03:59:48;;;;;;;;;;;;;;;;;;6211901;23;20332;-74
2022/09/04 04:02:14;;;;;;;;;;;;;;;;;;6211758;23;19916;-72
2022/09/04 04:04:41;;;;;;;;;;;;;;;;;;6211885;23;20378;-73
2022/09/04 04:07:07;;;;;;;;;;;;;;;;;;6212135;23;19915;-72
2022/09/04 04:09:41;;;;;;;;;;;;;;;;;;6213080;23;20273;-71
2022/09/04 04:12:12;;;;;;;;;;;;;;;;;;6214058;23;19966;-72
2022/09/04 04:14:38;;;;;;;;;;;;;;;;;;6187230;23;19993;-71
2022/09/04 04:17:03;;;;;;;;;;;;;;;;;;6187384;23;19916;-72
2022/09/04 04:19:30;;;;;;;;;;;;;;;;;;6213486;23;19912;-72
2022/09/04 04:21:56;;;;;;;;;;;;;;;;;;6213813;23;19943;-72
2022/09/04 04:24:28;;;;;;;;;;;;;;;;;;6213549;23;19973;-73
2022/09/04 04:26:54;;;;;;;;;;;;;;;;;;6214011;23;19912;-73
2022/09/04 04:29:20;;;;;;;;;;;;;;;;;;6213461;23;19912;-74
2022/09/04 04:32:09;;;;;;;;;;;;;;;;;;6214006;23;19946;-74
2022/09/04 04:34:40;;;;;;;;;;;;;;;;;;6213378;23;19912;-74
2022/09/04 04:37:07;;;;;;;;;;;;;;;;;;6213861;23;19993;-74
2022/09/04 04:39:34;;;;;;;;;;;;;;;;;;6213375;23;20140;-74
2022/09/04 04:42:16;;;;;;;;;;;;;;;;;;6213698;23;19912;-72
2022/09/04 04:47:26;;;;;;;;;;;;;;;;;;6186850;23;19912;-72
2022/09/04 04:49:56;;;;;;;;;;;;;;;;;;6213699;23;20006;-71
2022/09/04 04:52:22;;;;;;;;;;;;;;;;;;6186823;23;20404;-72
2022/09/04 04:54:47;;;;;;;;;;;;;;;;;;6213732;23;19936;-73
2022/09/04 04:57:13;;;;;;;;;;;;;;;;;;6216378;23;19994;-72
2022/09/04 04:59:40;;;;;;;;;;;;;;;;;;6217514;23;19919;-73
2022/09/04 05:02:06;;;;;;;;;;;;;;;;;;6217152;23;20256;-73
2022/09/04 05:04:32;;;;;;;;;;;;;;;;;;6189224;23;20382;-72
2022/09/04 05:06:58;;;;;;;;;;;;;;;;;;6213227;23;19991;-71
2022/09/04 05:09:25;;;;;;;;;;;;;;;;;;6213020;23;20307;-73
2022/09/04 05:11:59;;;;;;;;;;;;;;;;;;6213568;23;19920;-71
2022/09/04 05:14:24;;;;;;;;;;;;;;;;;;6213545;23;19940;-71
2022/09/04 05:16:51;;;;;;;;;;;;;;;;;;6213477;23;19919;-71
2022/09/04 05:19:17;;;;;;;;;;;;;;;;;;6206926;23;20702;-73
2022/09/04 05:21:42;;;;;;;;;;;;;;;;;;6210817;23;19962;-73
2022/09/04 05:24:08;;;;;;;;;;;;;;;;;;6185082;23;19919;-72
2022/09/04 05:26:34;;;;;;;;;;;;;;;;;;6211015;23;19912;-74
2022/09/04 05:29:01;;;;;;;;;;;;;;;;;;6211782;23;19926;-75
2022/09/04 05:31:26;;;;;;;;;;;;;;;;;;6213428;23;19916;-85
2022/09/04 05:33:55;;;;;;;;;;;;;;;;;;6217424;23;19931;-82
2022/09/04 05:36:20;;;;;;;;;;;;;;;;;;6220022;23;20014;-83
2022/09/04 05:38:53;;;;;;;;;;;;;;;;;;6220435;23;19933;-83
2022/09/04 05:41:45;;;;;;;;;;;;;;;;;;6212861;23;20307;-82
2022/09/04 05:44:11;;;;;;;;;;;;;;;;;;6211043;23;19912;-82
2022/09/04 05:46:36;;;;;;;;;;;;;;;;;;6208667;23;19912;-82
2022/09/04 05:49:02;;;;;;;;;;;;;;;;;;6209132;23;19975;-81
2022/09/04 05:51:37;;;;;;;;;;;;;;;;;;6211037;23;20272;-82
2022/09/04 05:54:02;;;;;;;;;;;;;;;;;;6210953;23;19966;-81
2022/09/04 05:56:28;;;;;;;;;;;;;;;;;;6211265;23;19934;-81
2022/09/04 05:59:06;;;;;;;;;;;;;;;;;;6210182;23;20260;-81
2022/09/04 06:01:32;;;;;;;;;;;;;;;;;;6212564;23;19939;-83
2022/09/04 06:03:57;;;;;;;;;;;;;;;;;;6212895;23;19958;-81
2022/09/04 06:06:22;;;;;;;;;;;;;;;;;;6213723;23;19916;-81
2022/09/04 06:08:48;;;;;;;;;;;;;;;;;;6213456;23;19912;-81
2022/09/04 06:11:20;;;;;;;;;;;;;;;;;;6213317;23;19912;-81
2022/09/04 06:13:48;;;;;;;;;;;;;;;;;;6213032;23;19927;-81
2022/09/04 06:16:14;;;;;;;;;;;;;;;;;;6213698;23;19912;-82
2022/09/04 06:18:40;;;;;;;;;;;;;;;;;;6212929;23;20249;-81
2022/09/04 06:21:05;;;;;;;;;;;;;;;;;;6214526;23;19986;-81
2022/09/04 06:23:31;;;;;;;;;;;;;;;;;;6206207;23;19962;-81
2022/09/04 06:25:57;;;;;;;;;;;;;;;;;;6214679;23;19918;-83
2022/09/04 06:28:22;;;;;;;;;;;;;;;;;;6214273;23;20448;-80
2022/09/04 06:30:48;;;;;;;;;;;;;;;;;;6212838;23;19919;-81
2022/09/04 06:33:14;;;;;;;;;;;;;;;;;;6213988;23;19920;-82
2022/09/04 06:35:40;;;;;;;;;;;;;;;;;;6215213;23;19994;-82
2022/09/04 06:38:06;;;;;;;;;;;;;;;;;;6214850;23;19911;-82
2022/09/04 06:40:32;;;;;;;;;;;;;;;;;;6215460;23;19918;-82
2022/09/04 06:42:57;;;;;;;;;;;;;;;;;;6215437;23;20407;-81
2022/09/04 06:45:23;;;;;;;;;;;;;;;;;;6214125;23;20367;-83
2022/09/04 06:47:49;;;;;;;;;;;;;;;;;;6214815;23;19912;-82
2022/09/04 06:50:14;;;;;;;;;;;;;;;;;;6215138;23;20245;-84
2022/09/04 06:52:40;;;;;;;;;;;;;;;;;;6214238;23;19947;-81
2022/09/04 06:55:06;;;;;;;;;;;;;;;;;;6214879;23;19912;-81
2022/09/04 06:57:34;;;;;;;;;;;;;;;;;;6217026;23;19998;-84
2022/09/04 06:59:59;;;;;;;;;;;;;;;;;;6235941;23;19912;-81
2022/09/04 07:02:31;;;;;;;;;;;;;;;;;;6245668;23;20348;-82
2022/09/04 07:04:56;;;;;;;;;;;;;;;;;;6216589;23;19916;-82
2022/09/04 07:07:25;;;;;;;;;;;;;;;;;;6212433;23;20267;-82
2022/09/04 07:09:50;;;;;;;;;;;;;;;;;;6238157;23;19962;-82
2022/09/04 07:12:16;;;;;;;;;;;;;;;;;;6214362;23;20337;-80
2022/09/04 07:14:42;;;;;;;;;;;;;;;;;;6187105;23;19919;-81
2022/09/04 07:17:07;;;;;;;;;;;;;;;;;;6215194;23;19998;-85
2022/09/04 07:19:33;;;;;;;;;;;;;;;;;;6238501;23;19999;-82
2022/09/04 07:21:59;;;;;;;;;;;;;;;;;;6215158;23;20257;-82
2022/09/04 07:24:34;;;;;;;;;;;;;;;;;;6188624;23;19911;-85
2022/09/04 07:27:13;;;;;;;;;;;;;;;;;;6215857;23;19919;-82
2022/09/04 07:29:38;;;;;;;;;;;;;;;;;;6215537;23;19912;-80
2022/09/04 07:32:04;;;;;;;;;;;;;;;;;;6214861;23;20383;-82
2022/09/04 07:34:29;;;;;;;;;;;;;;;;;;6224102;23;19912;-87
2022/09/04 07:36:55;;;;;;;;;;;;;;;;;;6209141;23;19912;-86
2022/09/04 07:39:21;;;;;;;;;;;;;;;;;;6183868;23;19911;-87
2022/09/04 07:41:46;;;;;;;;;;;;;;;;;;6235674;23;19896;-86
2022/09/04 07:44:12;;;;;;;;;;;;;;;;;;6212046;23;19939;-87
2022/09/04 07:46:39;;;;;;;;;;;;;;;;;;6238380;23;19912;-88
2022/09/04 07:49:08;;;;;;;;;;;;;;;;;;6235640;23;19931;-88
2022/09/04 07:51:34;;;;;;;;;;;;;;;;;;6235926;23;19911;-87
2022/09/04 07:54:00;;;;;;;;;;;;;;;;;;6234867;23;19920;-87
2022/09/04 07:56:26;;;;;;;;;;;;;;;;;;6234681;23;19943;-87
2022/09/04 07:58:51;;;;;;;;;;;;;;;;;;6234962;23;19930;-86
2022/09/04 08:01:17;;;;;;;;;;;;;;;;;;6235059;23;19911;-88
2022/09/04 08:03:43;;;;;;;;;;;;;;;;;;6212916;23;19916;-87
2022/09/04 08:06:16;;;;;;;;;;;;;;;;;;6190460;22;19942;-88
2022/09/04 08:08:44;;;;;;;;;;;;;;;;;;6242455;22;19896;-90
2022/09/04 08:11:11;;;;;;;;;;;;;;;;;;6241878;23;19912;-87
2022/09/04 08:13:36;;;;;;;;;;;;;;;;;;6242061;22;19936;-90
2022/09/04 08:16:02;;;;;;;;;;;;;;;;;;6241117;22;19919;-87
2022/09/04 08:18:27;;;;;;;;;;;;;;;;;;6216409;23;19911;-89
2022/09/04 08:20:53;;;;;;;;;;;;;;;;;;6216463;23;19904;-90
2022/09/04 08:23:19;;;;;;;;;;;;;;;;;;6232413;23;19908;-88
2022/09/04 19:06:20;;;;;;;;;;;;;;;;;;6204604;23;19947;-84
2022/09/04 19:08:46;;;;;;;;;;;;;;;;;;6173717;23;19936;-85
2022/09/04 19:11:12;;;;;;;;;;;;;;;;;;6195904;23;19983;-81
2022/09/04 19:13:37;;;;;;;;;;;;;;;;;;6181042;23;20348;-81
2022/09/04 19:16:11;;;;;;;;;;;;;;;;;;6181733;23;19928;-84
2022/09/04 19:18:40;;;;;;;;;;;;;;;;;;6196402;23;19920;-85
2022/09/04 19:21:06;;;;;;;;;;;;;;;;;;6198828;23;19954;-85
2022/09/04 19:23:32;;;;;;;;;;;;;;;;;;6173273;23;19917;-83
2022/09/04 19:25:57;;;;;;;;;;;;;;;;;;6167304;23;19924;-83
2022/09/04 19:28:23;;;;;;;;;;;;;;;;;;6193901;23;20371;-81
2022/09/04 19:30:48;;;;;;;;;;;;;;;;;;6194514;23;19912;-81
2022/09/04 19:33:14;;;;;;;;;;;;;;;;;;6187429;23;19920;-80
2022/09/04 19:35:40;;;;;;;;;;;;;;;;;;6155142;23;20345;-83
2022/09/04 19:38:05;;;;;;;;;;;;;;;;;;6181197;23;19992;-82
2022/09/04 19:40:31;;;;;;;;;;;;;;;;;;6181877;23;19912;-83
2022/09/04 19:42:57;;;;;;;;;;;;;;;;;;6182533;23;19912;-82
2022/09/04 19:45:22;;;;;;;;;;;;;;;;;;6181497;23;19920;-82
2022/09/04 19:47:48;;;;;;;;;;;;;;;;;;6180754;23;19922;-79
2022/09/04 19:50:13;;;;;;;;;;;;;;;;;;6179465;23;19912;-81
2022/09/04 19:52:39;;;;;;;;;;;;;;;;;;6154897;23;19920;-79
2022/09/04 19:55:05;;;;;;;;;;;;;;;;;;6181160;23;19991;-80
2022/09/04 19:57:30;;;;;;;;;;;;;;;;;;6151111;23;19999;-81
2022/09/04 19:59:56;;;;;;;;;;;;;;;;;;6152835;23;19912;-81
2022/09/04 20:02:25;;;;;;;;;;;;;;;;;;6179407;23;19917;-79
2022/09/04 20:05:09;;;;;;;;;;;;;;;;;;6179941;23;20019;-84
2022/09/04 20:07:35;;;;;;;;;;;;;;;;;;6186131;23;19916;-83
2022/09/04 20:10:00;;;;;;;;;;;;;;;;;;6162897;23;19967;-84
2022/09/04 20:12:26;;;;;;;;;;;;;;;;;;6161568;23;19920;-84
2022/09/04 20:14:53;;;;;;;;;;;;;;;;;;6140270;23;19972;-85
2022/09/04 20:17:19;;;;;;;;;;;;;;;;;;6164958;23;19936;-84
2022/09/04 20:19:44;;;;;;;;;;;;;;;;;;6162097;23;19913;-83
2022/09/04 20:22:10;;;;;;;;;;;;;;;;;;6152584;23;19919;-80
2022/09/04 20:24:36;;;;;;;;;;;;;;;;;;6179830;23;20019;-79
2022/09/04 20:27:02;;;;;;;;;;;;;;;;;;6179028;23;19919;-78
2022/09/04 20:29:28;;;;;;;;;;;;;;;;;;6179709;23;19967;-80
2022/09/04 20:31:53;;;;;;;;;;;;;;;;;;6180260;23;19912;-79
2022/09/04 20:34:19;;;;;;;;;;;;;;;;;;6128640;23;20050;-78
2022/09/04 20:36:46;;;;;;;;;;;;;;;;;;6179243;23;19944;-84
2022/09/04 20:39:12;;;;;;;;;;;;;;;;;;6192610;23;19916;-84
2022/09/04 20:41:38;;;;;;;;;;;;;;;;;;6178848;23;19904;-86
2022/09/04 20:44:03;;;;;;;;;;;;;;;;;;6207657;23;19892;-86
2022/09/04 20:46:29;;;;;;;;;;;;;;;;;;6205801;23;19968;-88
2022/09/04 20:48:55;;;;;;;;;;;;;;;;;;6210037;23;19912;-86
2022/09/04 20:51:20;;;;;;;;;;;;;;;;;;6179665;23;19912;-86
2022/09/04 20:53:46;;;;;;;;;;;;;;;;;;6158251;23;19920;-84
2022/09/04 20:56:12;;;;;;;;;;;;;;;;;;6184151;23;19896;-87
2022/09/04 20:58:38;;;;;;;;;;;;;;;;;;6185926;23;19923;-83
2022/09/04 21:01:04;;;;;;;;;;;;;;;;;;6207088;23;19916;-87
2022/09/04 21:03:33;;;;;;;;;;;;;;;;;;6212266;23;19916;-84
2022/09/04 21:05:59;;;;;;;;;;;;;;;;;;6179533;23;20014;-77
2022/09/04 21:08:24;;;;;;;;;;;;;;;;;;6179951;23;20303;-76
2022/09/04 21:10:50;;;;;;;;;;;;;;;;;;6179934;23;19908;-76
2022/09/04 21:13:16;;;;;;;;;;;;;;;;;;6178079;23;20058;-74
2022/09/04 21:15:41;;;;;;;;;;;;;;;;;;6179951;23;20242;-74
2022/09/04 21:18:07;;;;;;;;;;;;;;;;;;6179390;23;19912;-74
2022/09/04 21:20:32;;;;;;;;;;;;;;;;;;6180023;23;19916;-74
2022/09/04 21:22:58;;;;;;;;;;;;;;;;;;6179905;23;20356;-75
2022/09/04 21:25:23;;;;;;;;;;;;;;;;;;6179673;23;19912;-72
2022/09/04 21:27:49;;;;;;;;;;;;;;;;;;6179989;23;19912;-74
2022/09/04 21:30:15;;;;;;;;;;;;;;;;;;6179550;23;19912;-74
2022/09/04 21:32:40;;;;;;;;;;;;;;;;;;6179715;23;19927;-73
2022/09/04 21:35:06;;;;;;;;;;;;;;;;;;6177620;23;19934;-74
2022/09/04 21:37:31;;;;;;;;;;;;;;;;;;6179892;23;19940;-74
2022/09/04 21:39:59;;;;;;;;;;;;;;;;;;6180098;23;19983;-74
2022/09/04 21:42:24;;;;;;;;;;;;;;;;;;6178753;23;20411;-74
2022/09/04 21:44:50;;;;;;;;;;;;;;;;;;6181114;23;19920;-74
2022/09/04 21:47:15;;;;;;;;;;;;;;;;;;6180420;23;19916;-72
2022/09/04 21:49:41;;;;;;;;;;;;;;;;;;6180915;23;19912;-74
2022/09/04 21:52:06;;;;;;;;;;;;;;;;;;6180558;23;19958;-74
2022/09/04 21:54:32;;;;;;;;;;;;;;;;;;6179600;23;19912;-73
2022/09/04 21:57:06;;;;;;;;;;;;;;;;;;6180730;23;19972;-74
2022/09/04 21:59:31;;;;;;;;;;;;;;;;;;6182376;23;19912;-73
2022/09/04 22:01:57;;;;;;;;;;;;;;;;;;6180622;23;19916;-74
2022/09/04 22:04:24;;;;;;;;;;;;;;;;;;6182979;23;19927;-72
2022/09/04 22:06:50;;;;;;;;;;;;;;;;;;6183030;23;19967;-74
2022/09/04 22:09:15;;;;;;;;;;;;;;;;;;6183575;23;20259;-74
2022/09/04 22:11:41;;;;;;;;;;;;;;;;;;6156795;23;19912;-73
2022/09/04 22:14:09;;;;;;;;;;;;;;;;;;6157420;23;19921;-74
2022/09/04 22:16:35;;;;;;;;;;;;;;;;;;6182526;23;19920;-72
2022/09/04 22:19:00;;;;;;;;;;;;;;;;;;6183375;23;19919;-72
2022/09/04 22:21:26;;;;;;;;;;;;;;;;;;6182791;23;20315;-74
2022/09/04 22:23:52;;;;;;;;;;;;;;;;;;6183907;23;19919;-74
2022/09/04 22:26:18;;;;;;;;;;;;;;;;;;6183618;23;19916;-73
2022/09/04 22:28:43;;;;;;;;;;;;;;;;;;6184290;23;19974;-72
2022/09/04 22:31:09;;;;;;;;;;;;;;;;;;6183835;23;19912;-73
2022/09/04 22:33:34;;;;;;;;;;;;;;;;;;6157649;23;19920;-73
2022/09/04 22:36:00;;;;;;;;;;;;;;;;;;6183632;23;19943;-72
2022/09/04 22:38:25;;;;;;;;;;;;;;;;;;6157378;23;20307;-72
2022/09/04 22:40:51;;;;;;;;;;;;;;;;;;6183966;23;20269;-72
2022/09/04 22:43:16;;;;;;;;;;;;;;;;;;6183582;23;19912;-73
2022/09/04 22:45:42;;;;;;;;;;;;;;;;;;6184331;23;20364;-72
2022/09/04 22:48:07;;;;;;;;;;;;;;;;;;6183373;23;19963;-73
2022/09/04 22:50:33;;;;;;;;;;;;;;;;;;6186287;23;19913;-73
2022/09/04 22:52:59;;;;;;;;;;;;;;;;;;6159052;23;20276;-72
2022/09/04 22:55:25;;;;;;;;;;;;;;;;;;6183010;23;19912;-72
2022/09/04 23:00:37;;;;;;;;;;;;;;;;;;6201231;23;19928;-72
2022/09/04 23:03:02;;;;;;;;;;;;;;;;;;6209506;23;20351;-71
2022/09/04 23:05:28;;;;;;;;;;;;;;;;;;6185546;23;19912;-71
2022/09/04 23:07:53;;;;;;;;;;;;;;;;;;6212311;23;20296;-70
2022/09/04 23:10:19;;;;;;;;;;;;;;;;;;6185687;23;20263;-72
2022/09/04 23:12:44;;;;;;;;;;;;;;;;;;6211423;23;19920;-71
2022/09/04 23:15:10;;;;;;;;;;;;;;;;;;6210669;23;19911;-70
2022/09/04 23:17:36;;;;;;;;;;;;;;;;;;6186010;23;19947;-71
2022/09/04 23:20:03;;;;;;;;;;;;;;;;;;6211611;23;19912;-71
2022/09/04 23:22:29;;;;;;;;;;;;;;;;;;6212169;23;19919;-71
2022/09/04 23:24:54;;;;;;;;;;;;;;;;;;6160825;23;19911;-71
2022/09/04 23:27:20;;;;;;;;;;;;;;;;;;6212569;23;20245;-71
2022/09/04 23:29:46;;;;;;;;;;;;;;;;;;6212465;23;19994;-71
2022/09/04 23:32:12;;;;;;;;;;;;;;;;;;6212167;23;19912;-71
2022/09/04 23:34:37;;;;;;;;;;;;;;;;;;6212221;23;19912;-71
2022/09/04 23:37:03;;;;;;;;;;;;;;;;;;6212227;23;19919;-71
2022/09/04 23:39:28;;;;;;;;;;;;;;;;;;6212185;23;19919;-71
2022/09/04 23:41:54;;;;;;;;;;;;;;;;;;6212250;23;20245;-71
2022/09/04 23:44:19;;;;;;;;;;;;;;;;;;6212158;23;19918;-71
2022/09/04 23:46:45;;;;;;;;;;;;;;;;;;6211841;23;19912;-71
2022/09/04 23:49:11;;;;;;;;;;;;;;;;;;6211906;23;20021;-71
2022/09/04 23:51:39;;;;;;;;;;;;;;;;;;6185742;23;19911;-71
2022/09/04 23:54:04;;;;;;;;;;;;;;;;;;6210128;23;19920;-71
2022/09/04 23:56:30;;;;;;;;;;;;;;;;;;6211200;23;19922;-71
